Time;durP1;ratioP1;P1;durP2;ratioP2;P2;SDS_P1;SDS_P2;PMS_P1;PMS_P2;Temp;Humidity;BMP_temperature;BMP_pressure;BME280_temperature;BME280_humidity;BME280_pressure;Samples;Min_cycle;Max_cycle;Signal;HPM_P1;HPM_P2
2022/06/12 00:01:02;;;;;;;3.35;2.60;;;19.50;61.00;;;;;;923899;152;27302;-75
2022/06/12 00:03:32;;;;;;;2.35;2.15;;;19.50;61.10;;;;;;925463;152;27955;-74
2022/06/12 00:05:56;;;;;;;2.47;2.27;;;19.40;61.30;;;;;;923642;152;27419;-74
2022/06/12 00:08:22;;;;;;;2.50;2.37;;;19.40;61.40;;;;;;931014;150;27431;-75
2022/06/12 00:10:48;;;;;;;2.58;2.37;;;19.30;61.50;;;;;;939600;150;27315;-76
2022/06/12 00:13:15;;;;;;;3.45;2.60;;;19.30;61.70;;;;;;943563;147;27356;-75
2022/06/12 00:15:42;;;;;;;3.10;2.83;;;19.20;61.90;;;;;;940476;150;27435;-74
2022/06/12 00:18:08;;;;;;;4.53;3.15;;;19.20;62.10;;;;;;939923;150;27436;-74
2022/06/12 00:20:35;;;;;;;2.80;2.60;;;19.20;62.40;;;;;;940669;150;27489;-75
2022/06/12 00:23:01;;;;;;;2.50;2.30;;;19.10;62.60;;;;;;938379;150;27370;-75
2022/06/12 00:25:28;;;;;;;4.42;2.60;;;19.10;62.80;;;;;;900869;155;27384;-75
2022/06/12 00:27:55;;;;;;;3.22;2.65;;;19.10;62.90;;;;;;902935;155;27376;-74
2022/06/12 00:30:21;;;;;;;2.70;2.50;;;19.00;62.90;;;;;;902386;155;27301;-74
2022/06/12 00:32:52;;;;;;;4.30;2.47;;;19.00;63.10;;;;;;903343;155;27758;-75
2022/06/12 00:35:14;;;;;;;2.72;2.40;;;19.00;63.20;;;;;;901145;155;27335;-74
2022/06/12 00:37:41;;;;;;;2.92;2.70;;;18.90;63.40;;;;;;904527;155;27361;-75
2022/06/12 00:40:08;;;;;;;3.03;2.70;;;18.90;63.70;;;;;;904214;155;27454;-75
2022/06/12 00:42:35;;;;;;;3.27;2.80;;;18.80;64.00;;;;;;938713;150;27341;-75
2022/06/12 00:45:01;;;;;;;3.00;2.70;;;18.80;64.10;;;;;;942701;150;27435;-74
2022/06/12 00:47:27;;;;;;;3.67;2.60;;;18.80;64.30;;;;;;941161;150;27805;-75
2022/06/12 00:50:03;;;;;;;2.97;2.77;;;18.70;64.40;;;;;;938794;150;28389;-75
2022/06/12 00:52:30;;;;;;;4.40;2.77;;;18.70;64.70;;;;;;938173;150;27468;-74
2022/06/12 00:54:56;;;;;;;6.50;2.70;;;18.60;64.60;;;;;;940008;150;27308;-74
2022/06/12 00:57:23;;;;;;;2.83;2.62;;;18.60;64.80;;;;;;939848;150;27385;-74
2022/06/12 00:59:49;;;;;;;3.07;2.87;;;18.50;65.00;;;;;;938970;150;27487;-75
2022/06/12 01:02:16;;;;;;;3.83;3.10;;;18.40;65.10;;;;;;939440;150;27401;-75
2022/06/12 01:07:30;;;;;;;3.67;2.97;;;18.30;65.70;;;;;;941806;150;27784;-75
2022/06/12 01:09:57;;;;;;;3.02;2.83;;;18.30;65.70;;;;;;938815;150;27384;-74
2022/06/12 01:12:23;;;;;;;3.35;2.87;;;18.20;66.00;;;;;;940860;150;27427;-74
2022/06/12 01:14:50;;;;;;;3.03;2.73;;;18.20;66.30;;;;;;938165;150;27372;-75
2022/06/12 01:17:17;;;;;;;2.90;2.70;;;18.10;66.50;;;;;;939700;150;27376;-75
2022/06/12 01:19:43;;;;;;;3.40;3.07;;;18.10;66.70;;;;;;942527;148;27295;-75
2022/06/12 01:22:31;;;;;;;2.95;2.75;;;18.00;66.80;;;;;;942811;150;27448;-74
2022/06/12 01:25:10;;;;;;;3.20;2.90;;;18.00;67.10;;;;;;939752;150;27388;-75
2022/06/12 01:27:49;;;;;;;3.30;3.10;;;17.90;67.10;;;;;;942218;150;27418;-75
2022/06/12 01:30:16;;;;;;;3.43;3.07;;;17.80;67.30;;;;;;938643;150;27700;-75
2022/06/12 01:32:42;;;;;;;2.90;2.70;;;17.80;67.50;;;;;;940607;150;27439;-76
2022/06/12 01:35:23;;;;;;;3.90;2.67;;;17.70;67.90;;;;;;936653;147;27359;-76
2022/06/12 01:37:50;;;;;;;3.20;3.00;;;17.70;68.00;;;;;;940127;150;27306;-75
2022/06/12 01:40:22;;;;;;;3.30;2.80;;;17.60;68.00;;;;;;939129;150;27351;-76
2022/06/12 01:43:16;;;;;;;3.20;3.00;;;17.60;68.50;;;;;;943323;147;27395;-76
2022/06/12 01:45:58;;;;;;;3.03;2.83;;;17.60;68.90;;;;;;940053;150;27739;-76
2022/06/12 01:48:31;;;;;;;3.17;2.77;;;17.50;68.80;;;;;;938338;150;27502;-77
2022/06/12 01:51:00;;;;;;;3.43;3.13;;;17.50;69.10;;;;;;938591;150;27446;-75
2022/06/12 01:53:29;;;;;;;4.50;3.43;;;17.50;69.30;;;;;;933110;150;27330;-75
2022/06/12 01:56:17;;;;;;;3.37;3.07;;;17.50;69.60;;;;;;941435;150;27386;-76
2022/06/12 01:58:46;;;;;;;4.20;3.37;;;17.40;69.90;;;;;;941438;150;27452;-76
2022/06/12 02:01:16;;;;;;;3.70;3.40;;;17.40;70.00;;;;;;935983;150;27445;-76
2022/06/12 02:04:01;;;;;;;3.47;3.17;;;17.40;70.50;;;;;;940127;150;27395;-75
2022/06/12 02:06:32;;;;;;;3.40;3.20;;;17.40;70.70;;;;;;940977;148;27387;-73
2022/06/12 02:08:59;;;;;;;4.97;3.17;;;17.40;70.80;;;;;;942836;150;27411;-72
2022/06/12 02:14:13;;;;;;;3.43;3.13;;;17.30;71.30;;;;;;940850;150;27368;-73
2022/06/12 02:16:39;;;;;;;3.77;3.40;;;17.30;71.30;;;;;;939550;150;27455;-72
2022/06/12 02:19:06;;;;;;;3.47;3.17;;;17.30;71.60;;;;;;936493;150;27350;-73
2022/06/12 02:21:37;;;;;;;3.20;2.90;;;17.30;71.60;;;;;;938935;150;27429;-73
2022/06/12 02:24:21;;;;;;;3.30;3.00;;;17.30;71.90;;;;;;941361;150;27274;-74
2022/06/12 02:26:57;;;;;;;3.80;3.50;;;17.20;72.00;;;;;;940364;150;27447;-75
2022/06/12 02:29:17;;;;;;;4.23;3.60;;;17.20;72.00;;;;;;942201;150;27345;-73
2022/06/12 02:31:43;;;;;;;3.20;2.93;;;17.10;72.20;;;;;;938482;150;27412;-75
2022/06/12 02:34:10;;;;;;;3.23;3.00;;;17.10;72.50;;;;;;941228;150;27367;-73
2022/06/12 02:36:39;;;;;;;3.50;3.30;;;17.10;72.70;;;;;;943126;150;27359;-73
2022/06/12 02:39:06;;;;;;;3.53;3.20;;;17.10;73.00;;;;;;940458;150;27300;-73
2022/06/12 02:41:33;;;;;;;5.77;3.20;;;17.00;73.30;;;;;;939525;147;27643;-73
2022/06/12 02:43:59;;;;;;;3.70;3.40;;;17.00;73.60;;;;;;937931;150;27376;-75
2022/06/12 02:46:32;;;;;;;3.57;3.27;;;17.00;73.80;;;;;;938428;150;27425;-73
2022/06/12 02:48:58;;;;;;;3.83;3.53;;;17.00;73.90;;;;;;941306;150;27325;-74
2022/06/12 02:51:28;;;;;;;4.00;3.67;;;16.90;74.10;;;;;;943708;147;27311;-73
2022/06/12 02:54:12;;;;;;;3.63;3.30;;;16.90;74.50;;;;;;938625;150;27321;-74
2022/06/12 02:56:50;;;;;;;4.00;3.57;;;16.90;74.70;;;;;;940902;150;27464;-74
2022/06/12 02:59:38;;;;;;;3.60;3.30;;;16.90;74.70;;;;;;941296;150;27350;-72
2022/06/12 03:02:11;;;;;;;3.43;3.17;;;16.80;74.90;;;;;;942377;150;27330;-73
2022/06/12 03:04:43;;;;;;;3.63;3.33;;;16.80;75.00;;;;;;940901;150;27354;-72
2022/06/12 03:07:09;;;;;;;3.43;3.23;;;16.80;75.20;;;;;;944111;147;27374;-74
2022/06/12 03:09:36;;;;;;;3.40;3.20;;;16.70;75.40;;;;;;939728;150;27510;-72
2022/06/12 03:12:03;;;;;;;3.63;3.33;;;16.70;75.70;;;;;;928136;152;27282;-72
2022/06/12 03:14:29;;;;;;;4.13;3.83;;;16.70;76.10;;;;;;928728;152;27437;-73
2022/06/12 03:16:56;;;;;;;4.07;3.63;;;16.70;76.30;;;;;;925991;152;27371;-73
2022/06/12 03:19:28;;;;;;;4.30;3.43;;;16.70;76.50;;;;;;928937;152;27420;-73
2022/06/12 03:21:57;;;;;;;4.03;3.70;;;16.60;76.70;;;;;;925952;152;27369;-73
2022/06/12 03:24:36;;;;;;;5.63;3.63;;;16.60;76.80;;;;;;925738;152;27333;-73
2022/06/12 03:27:05;;;;;;;4.30;3.23;;;16.60;77.10;;;;;;927636;152;27337;-73
2022/06/12 03:29:56;;;;;;;3.70;3.40;;;16.60;77.20;;;;;;926608;152;27970;-72
2022/06/12 03:32:25;;;;;;;3.83;3.47;;;16.60;77.40;;;;;;931034;152;27368;-73
2022/06/12 03:34:55;;;;;;;3.47;3.17;;;16.50;77.20;;;;;;930793;152;27463;-72
2022/06/12 03:37:39;;;;;;;4.07;3.73;;;16.50;77.60;;;;;;928757;150;27478;-73
2022/06/12 03:40:17;;;;;;;3.90;3.60;;;16.50;78.00;;;;;;930782;152;27387;-72
2022/06/12 03:42:50;;;;;;;3.80;3.43;;;16.50;78.10;;;;;;931352;152;27403;-72
2022/06/12 03:45:25;;;;;;;4.20;3.80;;;16.50;78.50;;;;;;927209;152;28190;-72
2022/06/12 03:48:01;;;;;;;3.40;3.10;;;16.50;78.90;;;;;;926855;152;27441;-72
2022/06/12 03:50:39;;;;;;;3.93;3.63;;;16.50;79.20;;;;;;925700;152;27376;-73
2022/06/12 03:53:06;;;;;;;3.67;3.37;;;16.50;79.50;;;;;;928089;152;27365;-71
2022/06/12 03:58:20;;;;;;;3.67;3.37;;;16.50;80.00;;;;;;924435;152;27448;-72
2022/06/12 04:00:47;;;;;;;4.40;3.63;;;16.60;80.00;;;;;;924603;152;27301;-72
2022/06/12 04:03:13;;;;;;;4.80;3.60;;;16.60;80.30;;;;;;924817;152;27333;-72
2022/06/12 04:05:43;;;;;;;3.90;3.43;;;16.70;80.70;;;;;;923413;152;27468;-73
2022/06/12 04:08:09;;;;;;;3.87;3.57;;;16.70;80.90;;;;;;925106;152;27466;-72
2022/06/12 04:10:36;;;;;;;3.70;3.40;;;16.80;81.10;;;;;;894984;156;27540;-71
2022/06/12 04:13:02;;;;;;;4.33;3.70;;;16.90;81.30;;;;;;903320;156;27375;-72
2022/06/12 04:15:29;;;;;;;3.67;3.37;;;16.90;81.40;;;;;;897351;157;27408;-73
2022/06/12 04:17:56;;;;;;;4.13;3.73;;;17.00;81.70;;;;;;917500;153;27311;-74
2022/06/12 04:20:22;;;;;;;3.70;3.37;;;17.10;82.00;;;;;;916687;154;27383;-72
2022/06/12 04:23:01;;;;;;;3.57;3.27;;;17.20;82.10;;;;;;920809;151;27330;-72
2022/06/12 04:25:43;;;;;;;3.92;3.50;;;17.20;82.20;;;;;;917822;154;27370;-72
2022/06/12 04:28:27;;;;;;;3.50;3.20;;;17.30;82.20;;;;;;917272;153;27366;-73
2022/06/12 04:30:54;;;;;;;3.43;3.23;;;17.40;82.40;;;;;;915627;154;27344;-73
2022/06/12 04:33:35;;;;;;;4.22;3.45;;;17.50;82.30;;;;;;916875;154;27414;-72
2022/06/12 04:36:03;;;;;;;3.90;3.33;;;17.60;82.50;;;;;;913633;154;27469;-72
2022/06/12 04:38:28;;;;;;;4.27;3.77;;;17.70;82.40;;;;;;916204;154;27376;-72
2022/06/12 04:40:55;;;;;;;3.60;3.30;;;17.80;82.60;;;;;;919163;154;27382;-73
2022/06/12 04:43:22;;;;;;;3.70;3.40;;;17.90;82.60;;;;;;919251;153;27327;-73
2022/06/12 04:45:48;;;;;;;4.03;3.73;;;18.10;82.90;;;;;;916360;153;27319;-74
2022/06/12 04:48:30;;;;;;;4.12;3.77;;;18.20;83.40;;;;;;913942;153;27394;-73
2022/06/12 04:50:56;;;;;;;4.08;3.67;;;18.40;83.90;;;;;;901357;156;27414;-72
2022/06/12 04:53:23;;;;;;;4.12;3.77;;;18.70;85.10;;;;;;916552;154;27372;-72
2022/06/12 04:55:50;;;;;;;3.77;3.33;;;19.00;87.00;;;;;;897838;157;27952;-72
2022/06/12 04:58:16;;;;;;;3.37;3.10;;;19.50;88.90;;;;;;916908;153;27389;-72
2022/06/12 05:00:43;;;;;;;3.58;2.98;;;20.10;89.70;;;;;;918184;152;27361;-72
2022/06/12 05:03:12;;;;;;;2.87;2.67;;;20.70;90.00;;;;;;919335;154;27810;-73
2022/06/12 05:05:36;;;;;;;3.12;2.83;;;21.50;89.60;;;;;;917708;154;27325;-72
2022/06/12 05:08:03;;;;;;;2.75;2.55;;;22.30;88.50;;;;;;918869;153;27361;-72
2022/06/12 05:10:29;;;;;;;2.80;2.60;;;23.20;86.20;;;;;;919517;153;27379;-73
2022/06/12 05:12:56;;;;;;;2.62;2.42;;;24.10;83.80;;;;;;936787;150;27510;-72
2022/06/12 05:15:22;;;;;;;2.45;2.25;;;25.00;80.60;;;;;;907770;155;27851;-73
2022/06/12 05:17:49;;;;;;;3.25;2.65;;;25.90;77.80;;;;;;906336;155;27426;-73
2022/06/12 05:20:24;;;;;;;2.52;2.33;;;26.80;75.00;;;;;;924316;153;27328;-73
2022/06/12 05:22:51;;;;;;;2.40;2.20;;;27.70;72.40;;;;;;923414;153;27510;-74
2022/06/12 05:25:17;;;;;;;2.52;2.25;;;28.50;69.80;;;;;;899384;156;27435;-74
2022/06/12 05:27:45;;;;;;;2.62;2.42;;;29.30;67.30;;;;;;922067;153;27372;-73
2022/06/12 05:30:11;;;;;;;5.12;2.60;;;30.00;65.20;;;;;;920847;153;27394;-73
2022/06/12 05:32:37;;;;;;;2.72;2.52;;;30.70;63.10;;;;;;903629;156;27311;-73
2022/06/12 05:35:04;;;;;;;2.80;2.60;;;31.40;61.00;;;;;;923250;153;27386;-75
2022/06/12 05:37:30;;;;;;;2.42;2.22;;;32.00;59.60;;;;;;921167;153;27478;-75
2022/06/12 05:39:57;;;;;;;2.55;2.37;;;32.50;58.30;;;;;;922525;153;27524;-73
2022/06/12 05:42:24;;;;;;;2.55;2.35;;;33.10;57.10;;;;;;925210;153;27389;-73
2022/06/12 05:44:50;;;;;;;2.15;2.05;;;33.60;55.90;;;;;;923699;153;27511;-73
2022/06/12 05:47:18;;;;;;;2.55;2.30;;;34.10;55.00;;;;;;921048;153;27359;-74
2022/06/12 05:49:43;;;;;;;2.40;2.20;;;34.60;54.10;;;;;;921803;153;27363;-74
2022/06/12 05:52:10;;;;;;;2.60;2.40;;;35.00;53.20;;;;;;926101;153;26300;-76
2022/06/12 05:54:37;;;;;;;2.30;2.10;;;35.50;52.20;;;;;;923253;150;26751;-73
2022/06/12 05:57:03;;;;;;;2.37;2.10;;;36.00;51.50;;;;;;922357;153;27320;-75
2022/06/12 05:59:30;;;;;;;2.00;1.90;;;36.50;51.00;;;;;;923847;152;27877;-74
2022/06/12 06:01:56;;;;;;;2.15;2.05;;;37.00;50.30;;;;;;922164;153;26290;-75
2022/06/12 06:04:23;;;;;;;2.47;2.27;;;37.40;49.40;;;;;;923133;153;27421;-74
2022/06/12 06:06:49;;;;;;;2.67;2.02;;;38.00;48.70;;;;;;922581;153;27390;-74
2022/06/12 06:09:16;;;;;;;2.35;1.80;;;38.50;47.80;;;;;;922045;153;26380;-74
2022/06/12 06:11:43;;;;;;;2.98;2.10;;;39.10;46.90;;;;;;921566;153;27408;-74
2022/06/12 06:14:09;;;;;;;2.12;1.75;;;39.60;46.00;;;;;;922000;152;26163;-75
2022/06/12 06:16:36;;;;;;;1.90;1.80;;;40.10;45.20;;;;;;926153;153;26215;-77
2022/06/12 06:19:02;;;;;;;1.95;1.80;;;40.50;44.30;;;;;;922807;152;26204;-74
2022/06/12 06:21:29;;;;;;;2.00;1.87;;;40.90;43.30;;;;;;921127;153;26384;-74
2022/06/12 06:23:56;;;;;;;1.87;1.75;;;41.30;42.50;;;;;;921968;153;26268;-73
2022/06/12 06:26:23;;;;;;;1.77;1.67;;;41.70;41.80;;;;;;924949;152;26191;-74
2022/06/12 06:28:49;;;;;;;2.10;1.57;;;42.10;41.10;;;;;;919468;153;26280;-77
2022/06/12 06:31:15;;;;;;;1.70;1.60;;;42.50;40.40;;;;;;924103;153;26207;-76
2022/06/12 06:33:42;;;;;;;2.25;1.72;;;42.70;39.70;;;;;;921866;153;26238;-74
2022/06/12 06:36:09;;;;;;;2.58;1.70;;;43.10;39.70;;;;;;923797;153;26352;-74
2022/06/12 06:38:35;;;;;;;1.98;1.87;;;43.40;38.50;;;;;;921517;153;26102;-73
2022/06/12 06:41:02;;;;;;;1.92;1.52;;;43.70;37.80;;;;;;923159;152;26368;-75
2022/06/12 06:43:28;;;;;;;2.22;1.70;;;43.90;37.30;;;;;;922721;153;26177;-76
2022/06/12 06:46:13;;;;;;;2.55;1.52;;;44.10;36.90;;;;;;921753;153;26276;-73
2022/06/12 06:48:36;;;;;;;1.42;1.30;;;44.40;36.50;;;;;;923806;153;26187;-74
2022/06/12 06:51:03;;;;;;;1.10;1.10;;;44.70;36.10;;;;;;923020;153;26179;-74
2022/06/12 06:53:30;;;;;;;2.30;1.27;;;44.90;35.40;;;;;;923014;153;26359;-75
2022/06/12 06:55:56;;;;;;;1.92;1.60;;;45.10;34.80;;;;;;926591;153;26221;-73
2022/06/12 06:58:23;;;;;;;2.87;1.90;;;45.30;34.50;;;;;;923350;153;26232;-76
2022/06/12 07:00:49;;;;;;;2.35;1.55;;;45.50;34.00;;;;;;924231;152;26221;-74
2022/06/12 07:03:16;;;;;;;1.32;1.22;;;45.80;33.70;;;;;;923308;150;26222;-72
2022/06/12 07:05:42;;;;;;;1.95;1.77;;;46.00;33.20;;;;;;922153;153;26221;-72
2022/06/12 07:08:09;;;;;;;1.55;1.45;;;46.20;32.70;;;;;;922324;153;26262;-73
2022/06/12 07:10:36;;;;;;;1.50;1.40;;;46.40;32.30;;;;;;921904;152;26254;-72
2022/06/12 07:13:02;;;;;;;2.15;1.62;;;46.60;32.00;;;;;;919327;153;26272;-72
2022/06/12 07:15:29;;;;;;;3.85;1.50;;;46.70;31.60;;;;;;917509;154;27773;-74
2022/06/12 07:17:56;;;;;;;1.42;1.32;;;46.80;31.10;;;;;;918676;153;26268;-73
2022/06/12 07:20:22;;;;;;;1.65;1.55;;;47.00;30.80;;;;;;919817;150;26188;-73
2022/06/12 07:22:49;;;;;;;2.08;1.45;;;47.10;30.50;;;;;;918518;153;26729;-74
2022/06/12 07:25:15;;;;;;;1.22;1.12;;;47.20;30.30;;;;;;913161;153;26225;-72
2022/06/12 07:27:42;;;;;;;2.52;1.30;;;47.30;30.10;;;;;;917262;154;26169;-73
2022/06/12 07:30:08;;;;;;;3.35;1.70;;;47.40;30.00;;;;;;920473;154;26399;-71
2022/06/12 07:32:35;;;;;;;1.85;1.57;;;47.60;29.80;;;;;;919412;154;26199;-73
2022/06/12 07:35:02;;;;;;;1.50;1.40;;;47.80;29.50;;;;;;916829;154;26806;-74
2022/06/12 07:37:28;;;;;;;1.90;1.70;;;47.90;29.40;;;;;;916925;154;26302;-73
2022/06/12 07:39:55;;;;;;;1.70;1.37;;;48.00;29.10;;;;;;919494;153;28199;-72
2022/06/12 07:42:21;;;;;;;1.95;1.30;;;48.10;29.00;;;;;;917886;153;26215;-72
2022/06/12 07:44:48;;;;;;;2.35;1.12;;;48.30;28.90;;;;;;917882;153;26206;-72
2022/06/12 07:47:14;;;;;;;1.62;1.45;;;48.40;28.40;;;;;;918574;150;26276;-74
2022/06/12 07:49:41;;;;;;;1.72;1.20;;;48.50;28.10;;;;;;919604;153;26216;-72
2022/06/12 07:52:08;;;;;;;1.40;1.30;;;48.60;28.10;;;;;;914855;154;26184;-72
2022/06/12 07:54:36;;;;;;;1.40;1.30;;;48.60;27.90;;;;;;915955;153;26202;-72
2022/06/12 07:57:01;;;;;;;2.70;1.40;;;48.70;27.90;;;;;;920295;153;26218;-71
2022/06/12 07:59:27;;;;;;;1.62;1.30;;;48.80;27.70;;;;;;919670;154;26208;-73
2022/06/12 08:01:54;;;;;;;2.40;1.40;;;48.90;27.20;;;;;;919656;154;26207;-75
2022/06/12 08:04:21;;;;;;;1.75;1.32;;;48.90;27.20;;;;;;917447;154;26352;-72
2022/06/12 08:06:47;;;;;;;2.02;1.40;;;48.90;26.80;;;;;;919451;154;26172;-72
2022/06/12 08:09:14;;;;;;;1.40;1.30;;;48.80;26.80;;;;;;918097;150;26264;-72
2022/06/12 08:11:40;;;;;;;1.75;1.40;;;48.70;26.80;;;;;;917486;153;26173;-72
2022/06/12 08:14:07;;;;;;;1.32;1.22;;;48.70;26.80;;;;;;924693;152;26246;-74
2022/06/12 08:16:34;;;;;;;1.40;1.02;;;48.70;26.80;;;;;;924505;152;26207;-71
2022/06/12 08:19:00;;;;;;;1.40;1.12;;;48.70;26.80;;;;;;922155;152;26313;-71
2022/06/12 08:21:27;;;;;;;2.75;1.40;;;48.90;26.70;;;;;;921678;153;26207;-71
2022/06/12 08:23:53;;;;;;;1.30;1.20;;;49.10;26.60;;;;;;922437;152;26205;-71
2022/06/12 08:26:24;;;;;;;1.80;1.27;;;49.20;26.30;;;;;;921061;153;26253;-72
2022/06/12 08:28:49;;;;;;;1.70;1.20;;;49.40;26.30;;;;;;922213;153;26239;-72
2022/06/12 08:31:18;;;;;;;1.87;1.20;;;49.60;26.20;;;;;;927213;153;26172;-72
2022/06/12 08:33:45;;;;;;;1.60;1.22;;;49.70;25.80;;;;;;924144;153;26187;-74
2022/06/12 08:36:11;;;;;;;1.30;1.20;;;49.70;25.50;;;;;;922918;152;26273;-74
2022/06/12 08:38:38;;;;;;;1.20;1.00;;;49.80;25.50;;;;;;922675;152;27912;-72
2022/06/12 08:41:05;;;;;;;2.00;1.22;;;49.80;25.80;;;;;;927061;153;26684;-71
2022/06/12 08:43:34;;;;;;;1.60;1.35;;;49.70;25.40;;;;;;923969;153;26754;-72
2022/06/12 08:46:01;;;;;;;1.22;1.00;;;49.70;25.30;;;;;;923206;152;26169;-72
2022/06/12 08:48:45;;;;;;;3.02;1.17;;;50.00;25.50;;;;;;924605;153;26156;-73
2022/06/12 08:51:12;;;;;;;1.98;1.07;;;50.00;25.40;;;;;;919795;152;26254;-71
2022/06/12 08:53:41;;;;;;;1.25;1.02;;;50.20;25.20;;;;;;921678;153;26309;-71
2022/06/12 08:56:11;;;;;;;4.10;0.95;;;50.30;24.90;;;;;;923116;151;26261;-71
2022/06/12 08:58:46;;;;;;;1.75;0.90;;;50.40;24.80;;;;;;921100;153;26387;-72
2022/06/12 09:01:13;;;;;;;1.72;1.20;;;50.40;24.40;;;;;;903750;152;26203;-72
2022/06/12 09:03:40;;;;;;;1.62;1.15;;;50.40;24.30;;;;;;922460;153;26237;-73
2022/06/12 09:06:09;;;;;;;2.17;1.37;;;50.30;24.40;;;;;;922152;153;26240;-72
2022/06/12 09:08:47;;;;;;;1.50;1.30;;;50.30;24.50;;;;;;921400;150;26220;-71
2022/06/12 09:11:17;;;;;;;1.75;1.42;;;50.10;24.20;;;;;;923076;152;26200;-73
2022/06/12 09:13:46;;;;;;;2.87;1.45;;;49.90;24.20;;;;;;925727;151;26459;-72
2022/06/12 09:16:19;;;;;;;1.25;1.15;;;49.70;24.50;;;;;;925578;153;26255;-72
2022/06/12 09:18:51;;;;;;;2.42;1.27;;;49.70;24.60;;;;;;910504;153;26183;-72
2022/06/12 09:21:36;;;;;;;1.55;1.30;;;49.60;24.10;;;;;;921827;152;26902;-74
2022/06/12 09:24:06;;;;;;;1.07;1.02;;;49.50;24.20;;;;;;923364;153;26727;-72
2022/06/12 09:26:47;;;;;;;1.12;1.02;;;49.20;24.40;;;;;;920702;153;26205;-72
2022/06/12 09:29:35;;;;;;;1.65;1.40;;;49.00;24.30;;;;;;924574;153;26218;-72
2022/06/12 09:32:05;;;;;;;1.98;1.10;;;48.70;24.70;;;;;;927387;153;26636;-72
2022/06/12 09:34:49;;;;;;;0.98;0.98;;;48.50;24.70;;;;;;924862;150;26333;-73
2022/06/12 09:40:30;;;;;;;1.22;1.10;;;48.20;24.60;;;;;;930361;152;26404;-71
2022/06/12 09:42:59;;;;;;;1.65;1.20;;;48.00;24.90;;;;;;927262;152;26206;-71
2022/06/12 09:45:29;;;;;;;1.40;1.00;;;47.90;24.80;;;;;;925187;152;26271;-72
2022/06/12 09:48:14;;;;;;;1.65;1.17;;;47.80;24.70;;;;;;927210;151;26630;-72
2022/06/12 09:50:58;;;;;;;4.25;1.20;;;47.70;24.60;;;;;;925178;153;26231;-71
2022/06/12 09:53:43;;;;;;;3.90;1.32;;;47.40;24.50;;;;;;928858;152;26245;-74
2022/06/12 09:56:18;;;;;;;2.20;1.50;;;46.90;24.20;;;;;;925272;153;26251;-72
2022/06/12 09:58:51;;;;;;;1.32;1.22;;;46.10;24.10;;;;;;925760;153;26185;-72
2022/06/12 10:01:17;;;;;;;1.32;1.17;;;45.20;24.30;;;;;;927929;153;26245;-71
2022/06/12 10:04:05;;;;;;;2.40;1.17;;;44.30;24.80;;;;;;926921;153;26291;-72
2022/06/12 10:06:31;;;;;;;1.65;1.17;;;43.50;25.30;;;;;;928329;150;26319;-74
2022/06/12 10:09:07;;;;;;;1.10;1.00;;;42.80;25.90;;;;;;924672;153;26296;-71
2022/06/12 10:11:39;;;;;;;2.27;1.27;;;42.40;26.30;;;;;;924901;151;26188;-73
2022/06/12 10:14:06;;;;;;;1.10;1.10;;;42.00;26.70;;;;;;922795;152;26605;-73
2022/06/12 10:16:57;;;;;;;1.55;1.02;;;41.80;27.00;;;;;;916707;153;26220;-74
2022/06/12 10:19:32;;;;;;;1.77;0.95;;;41.70;27.20;;;;;;916559;154;26228;-74
2022/06/12 10:21:59;;;;;;;1.42;1.10;;;41.70;27.30;;;;;;918638;153;26633;-72
2022/06/12 10:24:26;;;;;;;1.85;1.50;;;41.70;27.20;;;;;;917644;153;26292;-72
2022/06/12 10:26:52;;;;;;;1.52;1.42;;;41.60;27.00;;;;;;914638;153;26265;-72
2022/06/12 10:29:24;;;;;;;1.92;1.82;;;41.40;27.10;;;;;;918755;153;26243;-72
2022/06/12 10:31:57;;;;;;;2.05;1.50;;;41.10;27.00;;;;;;918387;150;26202;-74
2022/06/12 10:34:24;;;;;;;1.98;1.45;;;40.80;27.00;;;;;;918450;153;27337;-71
2022/06/12 10:36:50;;;;;;;2.22;1.62;;;40.50;27.10;;;;;;918151;153;27676;-73
2022/06/12 10:39:17;;;;;;;1.47;1.37;;;40.00;27.20;;;;;;913946;153;27367;-71
2022/06/12 10:41:44;;;;;;;1.40;1.40;;;39.60;27.50;;;;;;896185;156;27512;-72
2022/06/12 10:44:10;;;;;;;2.42;1.47;;;39.10;28.20;;;;;;895579;156;27465;-75
2022/06/12 10:46:37;;;;;;;2.08;1.70;;;38.70;27.80;;;;;;886409;155;27430;-74
2022/06/12 10:49:03;;;;;;;2.55;1.52;;;38.30;27.90;;;;;;895503;156;27491;-74
2022/06/12 10:51:30;;;;;;;1.57;1.40;;;37.80;28.20;;;;;;901133;156;27373;-73
2022/06/12 10:53:56;;;;;;;1.65;1.10;;;37.40;28.40;;;;;;907760;156;27409;-75
2022/06/12 10:56:23;;;;;;;1.52;1.40;;;37.00;28.70;;;;;;911616;155;27445;-74
2022/06/12 10:58:52;;;;;;;2.37;1.35;;;36.50;29.10;;;;;;912931;154;27455;-73
2022/06/12 11:01:53;;;;;;;1.02;0.90;;;36.20;29.60;;;;;;906811;155;28170;-74
2022/06/12 11:04:38;;;;;;;1.75;1.15;;;35.90;29.60;;;;;;914631;154;27511;-73
2022/06/12 11:07:16;;;;;;;1.72;1.35;;;35.60;29.40;;;;;;912078;154;27327;-73
2022/06/12 11:09:54;;;;;;;2.33;1.07;;;35.40;29.70;;;;;;913278;151;27404;-74
2022/06/12 11:12:52;;;;;;;3.10;0.90;;;35.10;29.80;;;;;;884844;155;27460;-75
2022/06/12 11:15:45;;;;;;;1.32;1.20;;;34.90;29.60;;;;;;913938;154;27439;-74
2022/06/12 11:18:33;;;;;;;4.20;1.07;;;34.80;30.10;;;;;;911160;154;27412;-73
2022/06/12 11:21:02;;;;;;;1.22;1.12;;;34.60;30.20;;;;;;913981;154;27461;-73
2022/06/12 11:23:44;;;;;;;0.78;0.78;;;34.50;30.60;;;;;;911704;155;27553;-73
2022/06/12 11:26:19;;;;;;;1.45;1.15;;;34.50;30.60;;;;;;912486;154;27419;-73
2022/06/12 11:28:49;;;;;;;1.67;0.88;;;34.40;30.70;;;;;;911063;155;27378;-74
2022/06/12 11:31:21;;;;;;;1.35;1.10;;;34.30;30.80;;;;;;910232;154;27717;-74
2022/06/12 11:33:53;;;;;;;1.42;1.20;;;34.30;31.30;;;;;;911284;154;27401;-74
2022/06/12 11:36:37;;;;;;;1.40;0.90;;;34.30;30.90;;;;;;912677;151;27462;-74
2022/06/12 11:39:14;;;;;;;1.10;1.00;;;34.20;30.50;;;;;;908595;154;27367;-75
2022/06/12 11:41:55;;;;;;;2.37;1.17;;;34.20;30.90;;;;;;910956;151;27344;-75
2022/06/12 11:44:36;;;;;;;1.87;1.20;;;34.20;30.90;;;;;;907996;151;27410;-74
2022/06/12 11:47:41;;;;;;;2.22;1.30;;;34.20;31.00;;;;;;913316;154;27399;-73
2022/06/12 11:50:22;;;;;;;1.27;1.00;;;34.20;31.10;;;;;;910829;154;27369;-74
2022/06/12 11:52:58;;;;;;;1.80;1.05;;;34.20;31.10;;;;;;912776;155;27332;-73
2022/06/12 11:55:37;;;;;;;1.72;1.00;;;34.20;31.30;;;;;;911408;154;27463;-74
2022/06/12 11:58:10;;;;;;;1.30;1.20;;;34.20;31.30;;;;;;912334;154;27374;-74
2022/06/12 12:00:53;;;;;;;1.92;1.30;;;34.30;31.30;;;;;;912347;154;27430;-76
2022/06/12 12:03:21;;;;;;;1.17;1.07;;;34.20;31.30;;;;;;910146;154;27415;-75
2022/06/12 12:05:53;;;;;;;1.98;1.15;;;34.20;31.30;;;;;;910914;154;27320;-74
2022/06/12 12:08:34;;;;;;;1.17;1.05;;;34.10;31.30;;;;;;910784;155;27728;-73
2022/06/12 12:11:16;;;;;;;2.67;1.12;;;34.10;31.40;;;;;;909167;155;27417;-76
2022/06/12 12:13:45;;;;;;;1.45;1.30;;;34.00;31.60;;;;;;909810;155;27429;-73
2022/06/12 12:16:33;;;;;;;1.20;1.10;;;34.00;31.30;;;;;;913089;154;27445;-73
2022/06/12 12:19:01;;;;;;;1.42;0.95;;;33.90;31.80;;;;;;913907;154;27377;-74
2022/06/12 12:21:35;;;;;;;1.30;1.17;;;33.90;31.50;;;;;;894114;154;27329;-74
2022/06/12 12:24:02;;;;;;;1.07;0.98;;;33.80;31.60;;;;;;913864;154;27919;-76
2022/06/12 12:26:33;;;;;;;1.98;1.05;;;33.80;31.60;;;;;;912215;154;27476;-73
2022/06/12 12:29:00;;;;;;;2.47;1.57;;;33.70;31.50;;;;;;912232;154;28389;-74
2022/06/12 12:31:24;;;;;;;1.12;1.05;;;33.50;31.50;;;;;;912771;154;27456;-74
2022/06/12 12:33:51;;;;;;;1.45;0.95;;;33.40;31.50;;;;;;912232;154;27521;-74
2022/06/12 12:41:52;;;;;;;2.40;1.20;;;33.20;32.50;;;;;;916574;154;27368;-73
2022/06/12 12:44:28;;;;;;;1.25;1.00;;;33.20;32.70;;;;;;913266;154;27426;-74
2022/06/12 12:46:55;;;;;;;1.10;1.00;;;33.20;32.70;;;;;;912394;154;27402;-74
2022/06/12 12:49:32;;;;;;;0.70;0.70;;;33.20;32.70;;;;;;913080;154;27381;-75
2022/06/12 12:52:14;;;;;;;4.03;1.00;;;33.20;32.70;;;;;;916801;154;27434;-73
2022/06/12 12:54:41;;;;;;;1.12;1.02;;;33.20;32.50;;;;;;915730;154;27805;-74
2022/06/12 12:57:08;;;;;;;1.77;1.10;;;33.20;32.30;;;;;;914189;154;27406;-73
2022/06/12 12:59:34;;;;;;;1.25;1.15;;;33.20;32.30;;;;;;910414;154;27471;-73
2022/06/12 13:02:01;;;;;;;0.95;0.93;;;33.20;32.40;;;;;;911732;154;27667;-74
2022/06/12 13:04:30;;;;;;;1.25;1.17;;;33.20;32.40;;;;;;911230;154;27406;-73
2022/06/12 13:07:34;;;;;;;1.05;1.05;;;33.10;32.50;;;;;;911462;154;27468;-73
2022/06/12 13:10:25;;;;;;;2.65;1.05;;;33.10;32.20;;;;;;913718;154;27421;-74
2022/06/12 13:13:22;;;;;;;1.30;1.17;;;33.10;32.40;;;;;;913868;154;27848;-73
2022/06/12 13:16:03;;;;;;;1.37;1.07;;;33.00;32.50;;;;;;914786;154;27341;-73
2022/06/12 13:18:51;;;;;;;1.20;1.10;;;33.00;32.50;;;;;;913256;154;27355;-73
2022/06/12 13:21:27;;;;;;;1.55;1.17;;;33.00;32.50;;;;;;913162;154;27472;-74
2022/06/12 13:24:17;;;;;;;1.30;1.20;;;33.00;32.60;;;;;;911444;154;27399;-75